Harmony, Illinois
Current Conditions -  °F | °C
As of 8:15 PM on Wednesday 17 Dec 2014 (Local Time) from KMQB Reporting Station
Clear Clear  
Wind Chill: 15°   Ceiling: Unl
Heat Index: 21°   Visibility: 10mi
Dew Point: 20°   Wind: 5mph
Humidity: 96%   Direction: 360°N
Pressure: 30.31"   Gusts: NA
Location:  40.4155°N, 91.0269°W
Report Text: KMQB 180215Z AUTO 36004KT 10SM CLR M06/M07 A3031 RMK AO2 T10601066
Loading
Personal Weather Stations






























Interactive Weather Map New forecast layout! Learn more

10-Day Weather Forecast

Advertisements
Track Severe Weather on mobile